Time;durP1;ratioP1;P1;durP2;ratioP2;P2;SDS_P1;SDS_P2;PMS_P1;PMS_P2;Temp;Humidity;BMP_temperature;BMP_pressure;BME280_temperature;BME280_humidity;BME280_pressure;Samples;Min_cycle;Max_cycle;Signal;HPM_P1;HPM_P2
2021/06/08 00:02:23;;;;;;;1.70;1.70;;;18.20;98.00;;;;;;5071982;28;20457;-70
2021/06/08 00:04:53;;;;;;;2.23;2.00;;;18.20;98.00;;;;;;5069470;28;20460;-69
2021/06/08 00:07:20;;;;;;;3.23;2.20;;;18.20;98.00;;;;;;5070828;28;20465;-69
2021/06/08 00:09:48;;;;;;;3.27;2.03;;;18.20;98.00;;;;;;5069467;28;20456;-70
2021/06/08 00:12:14;;;;;;;3.47;2.27;;;18.20;98.00;;;;;;5071769;28;20457;-68
2021/06/08 00:14:43;;;;;;;2.30;1.63;;;18.20;98.00;;;;;;5069185;28;20499;-69
2021/06/08 00:17:10;;;;;;;1.97;1.90;;;18.20;98.00;;;;;;5071728;28;20449;-70
2021/06/08 00:20:01;;;;;;;2.80;2.00;;;18.20;98.00;;;;;;5069318;28;20506;-69
2021/06/08 00:22:30;;;;;;;5.53;2.07;;;18.20;98.00;;;;;;5069850;28;20480;-69
2021/06/08 00:24:57;;;;;;;2.03;1.63;;;18.20;98.00;;;;;;5068943;28;20455;-69
2021/06/08 00:27:24;;;;;;;3.90;2.30;;;18.20;98.00;;;;;;5071055;28;20526;-68
2021/06/08 00:29:54;;;;;;;3.20;1.60;;;18.20;98.00;;;;;;5068888;28;20464;-70
2021/06/08 00:32:20;;;;;;;6.30;2.00;;;18.10;98.00;;;;;;5071338;28;20579;-69
2021/06/08 00:34:49;;;;;;;2.57;1.87;;;18.10;98.00;;;;;;5068782;28;20538;-69
2021/06/08 00:37:16;;;;;;;2.70;1.90;;;18.10;98.00;;;;;;5070460;28;20457;-69
2021/06/08 00:39:43;;;;;;;3.40;2.33;;;18.20;98.00;;;;;;5068873;28;20465;-69
2021/06/08 00:42:10;;;;;;;7.90;2.37;;;18.20;98.00;;;;;;5071217;28;20461;-68
2021/06/08 00:44:38;;;;;;;1.63;1.53;;;18.20;98.00;;;;;;5068517;28;20449;-68
2021/06/08 00:47:04;;;;;;;3.10;2.20;;;18.20;98.00;;;;;;5069925;28;20463;-69
2021/06/08 00:49:31;;;;;;;3.73;2.47;;;18.20;98.00;;;;;;5068855;28;20962;-69
2021/06/08 00:51:57;;;;;;;2.30;1.70;;;18.10;98.00;;;;;;5070926;28;20962;-69
2021/06/08 00:54:26;;;;;;;6.30;2.03;;;18.10;98.00;;;;;;5068705;28;20457;-69
2021/06/08 00:56:52;;;;;;;2.37;1.90;;;18.20;98.00;;;;;;5070909;28;20469;-69
2021/06/08 00:59:19;;;;;;;7.00;2.77;;;18.10;98.00;;;;;;5067378;28;20484;-69
2021/06/08 01:01:45;;;;;;;4.00;2.30;;;18.00;98.00;;;;;;5070764;28;20484;-70
2021/06/08 01:04:15;;;;;;;2.40;2.07;;;17.90;98.00;;;;;;5068640;28;20493;-68
2021/06/08 01:06:47;;;;;;;2.40;1.70;;;17.90;98.00;;;;;;5070199;28;20461;-69
2021/06/08 01:09:15;;;;;;;2.93;2.07;;;18.00;98.00;;;;;;5068560;28;20536;-69
2021/06/08 01:11:44;;;;;;;2.03;1.93;;;17.90;98.00;;;;;;5069795;28;20453;-69
2021/06/08 01:14:10;;;;;;;2.33;2.10;;;17.90;98.00;;;;;;5068388;28;20475;-69
2021/06/08 01:16:37;;;;;;;3.60;2.47;;;17.80;98.00;;;;;;5070698;28;20457;-69
2021/06/08 01:19:03;;;;;;;3.87;2.60;;;17.80;98.00;;;;;;5066884;28;20516;-69
2021/06/08 01:21:32;;;;;;;8.43;3.53;;;17.90;98.00;;;;;;5070690;28;20461;-69
2021/06/08 01:23:58;;;;;;;2.00;1.93;;;17.90;98.00;;;;;;5068228;28;20488;-69
2021/06/08 01:26:26;;;;;;;1.80;1.60;;;18.00;98.00;;;;;;5070688;28;20463;-68
2021/06/08 01:28:53;;;;;;;2.73;2.40;;;18.00;98.00;;;;;;5068253;28;20520;-69
2021/06/08 01:31:23;;;;;;;6.20;2.30;;;18.00;98.00;;;;;;5070672;28;20488;-70
2021/06/08 01:33:50;;;;;;;1.83;1.80;;;17.90;98.00;;;;;;5069385;28;20484;-69
2021/06/08 01:36:19;;;;;;;1.97;1.80;;;17.90;98.00;;;;;;5070678;28;20515;-69
2021/06/08 01:38:49;;;;;;;2.40;1.67;;;17.90;98.00;;;;;;5070555;28;20514;-69
2021/06/08 01:41:20;;;;;;;1.40;1.40;;;17.90;98.00;;;;;;5069131;28;20486;-68
2021/06/08 01:43:48;;;;;;;2.53;1.87;;;17.90;98.00;;;;;;5070454;28;20500;-69
2021/06/08 01:46:16;;;;;;;2.80;1.70;;;17.90;98.00;;;;;;5069483;28;20521;-70
2021/06/08 01:48:43;;;;;;;3.07;2.40;;;17.90;98.00;;;;;;5072237;28;20457;-69
2021/06/08 01:51:19;;;;;;;3.47;1.83;;;18.00;98.00;;;;;;5072403;28;20452;-69
2021/06/08 01:53:59;;;;;;;5.13;2.40;;;17.90;98.00;;;;;;5074411;28;20923;-68
2021/06/08 01:56:28;;;;;;;1.90;1.70;;;18.00;98.00;;;;;;5074543;28;20453;-69
2021/06/08 01:59:07;;;;;;;3.17;1.70;;;18.10;98.00;;;;;;5071705;28;20544;-69
2021/06/08 02:01:46;;;;;;;2.60;1.90;;;18.00;98.00;;;;;;5074349;28;20506;-70
2021/06/08 02:04:22;;;;;;;2.00;1.93;;;18.00;98.00;;;;;;5071904;28;20943;-70
2021/06/08 02:06:54;;;;;;;7.10;2.30;;;18.10;98.00;;;;;;5074287;28;20456;-69
2021/06/08 02:09:31;;;;;;;4.17;2.13;;;18.10;98.00;;;;;;5071812;28;20864;-69
2021/06/08 02:12:03;;;;;;;3.03;1.90;;;18.00;98.00;;;;;;5074241;28;20474;-70
2021/06/08 02:14:39;;;;;;;1.73;1.67;;;18.00;98.00;;;;;;5071620;28;20461;-69
2021/06/08 02:17:13;;;;;;;3.00;1.77;;;18.00;98.00;;;;;;5074045;28;20457;-69
2021/06/08 02:19:42;;;;;;;1.80;1.50;;;18.00;98.00;;;;;;5071683;28;20588;-69
2021/06/08 02:22:09;;;;;;;1.73;1.63;;;17.90;98.00;;;;;;5073687;28;20874;-69
2021/06/08 02:24:38;;;;;;;5.10;2.60;;;17.90;98.00;;;;;;5071355;28;20931;-69
2021/06/08 02:27:07;;;;;;;1.70;1.60;;;18.00;98.00;;;;;;5073534;28;20453;-69
2021/06/08 02:29:35;;;;;;;2.07;1.53;;;18.00;98.00;;;;;;5071238;28;20986;-69
2021/06/08 02:32:03;;;;;;;5.80;2.27;;;18.00;98.00;;;;;;5073770;28;20498;-70
2021/06/08 02:34:31;;;;;;;3.77;2.43;;;18.00;98.00;;;;;;5071273;28;20493;-69
2021/06/08 02:36:59;;;;;;;5.13;2.83;;;18.00;98.00;;;;;;5073542;28;20538;-69
2021/06/08 02:39:27;;;;;;;1.93;1.80;;;18.00;98.00;;;;;;5071234;28;20986;-68
2021/06/08 02:41:56;;;;;;;3.60;1.93;;;18.10;98.00;;;;;;5073686;28;20464;-69
2021/06/08 02:44:23;;;;;;;3.07;1.83;;;18.10;98.00;;;;;;5071240;28;20465;-69
2021/06/08 02:46:51;;;;;;;3.17;2.17;;;18.00;98.00;;;;;;5073564;28;20509;-68
2021/06/08 02:49:19;;;;;;;1.63;1.60;;;18.00;98.00;;;;;;5071071;28;20453;-69
2021/06/08 02:51:46;;;;;;;4.97;2.23;;;18.00;98.00;;;;;;5073539;28;20479;-70
2021/06/08 02:54:13;;;;;;;3.03;1.83;;;18.00;98.00;;;;;;5070802;28;20456;-70
2021/06/08 02:56:40;;;;;;;4.83;2.50;;;18.00;98.00;;;;;;5073301;28;20467;-68
2021/06/08 02:59:09;;;;;;;4.43;1.93;;;17.90;98.00;;;;;;5069504;28;20534;-69
2021/06/08 03:01:40;;;;;;;2.13;1.73;;;17.90;98.00;;;;;;5072580;28;20829;-69
2021/06/08 03:04:09;;;;;;;2.40;1.73;;;17.90;98.00;;;;;;5070786;28;20463;-69
2021/06/08 03:06:39;;;;;;;2.97;2.10;;;17.80;98.00;;;;;;5073402;28;20469;-69
2021/06/08 03:09:08;;;;;;;3.33;2.00;;;17.90;98.00;;;;;;5070977;28;20459;-68
2021/06/08 03:11:38;;;;;;;2.33;1.57;;;18.00;98.00;;;;;;5073053;28;20539;-69
2021/06/08 03:14:07;;;;;;;2.27;2.00;;;18.00;98.00;;;;;;5070548;28;20455;-70
2021/06/08 03:16:39;;;;;;;3.77;2.30;;;17.90;98.00;;;;;;5072969;28;20492;-70
2021/06/08 03:19:08;;;;;;;2.43;2.03;;;17.90;98.00;;;;;;5070599;28;20972;-68
2021/06/08 03:21:38;;;;;;;3.70;2.07;;;17.90;98.00;;;;;;5073062;28;20452;-69
2021/06/08 03:24:08;;;;;;;1.80;1.70;;;17.90;98.00;;;;;;5070383;28;20890;-69
2021/06/08 03:26:36;;;;;;;2.30;1.93;;;18.00;98.00;;;;;;5072771;28;20457;-69
2021/06/08 03:29:06;;;;;;;2.60;2.03;;;17.80;98.00;;;;;;5070347;28;20555;-71
2021/06/08 03:31:36;;;;;;;2.60;1.90;;;17.90;98.00;;;;;;5072740;28;20488;-69
2021/06/08 03:34:04;;;;;;;2.20;1.77;;;18.00;98.00;;;;;;5070939;28;20526;-71
2021/06/08 03:36:34;;;;;;;2.13;1.83;;;18.00;98.00;;;;;;5072530;28;20456;-69
2021/06/08 03:39:02;;;;;;;3.87;2.13;;;17.90;98.00;;;;;;5071360;28;20512;-70
2021/06/08 03:41:41;;;;;;;3.87;2.17;;;17.80;98.00;;;;;;5072524;28;20449;-68
2021/06/08 03:44:07;;;;;;;3.57;2.57;;;17.80;98.00;;;;;;5070021;28;20460;-70
2021/06/08 03:46:36;;;;;;;2.57;1.83;;;17.80;98.00;;;;;;5072353;28;20528;-69
2021/06/08 03:49:03;;;;;;;2.60;1.87;;;17.80;98.00;;;;;;5070816;28;21008;-70
2021/06/08 03:51:32;;;;;;;2.47;1.97;;;17.80;98.00;;;;;;5072339;28;20463;-68
2021/06/08 03:54:00;;;;;;;3.73;2.10;;;17.80;98.00;;;;;;5072020;28;20820;-68
2021/06/08 03:56:28;;;;;;;3.70;2.00;;;17.80;98.00;;;;;;5070282;28;20449;-69
2021/06/08 03:58:56;;;;;;;2.43;1.80;;;17.80;98.00;;;;;;5070704;28;20535;-69
2021/06/08 04:01:24;;;;;;;2.90;1.77;;;17.70;98.00;;;;;;5069419;28;20491;-69
2021/06/08 04:03:52;;;;;;;1.70;1.47;;;17.60;98.00;;;;;;5072067;28;20452;-69
2021/06/08 04:06:20;;;;;;;5.07;2.50;;;17.60;98.00;;;;;;5069396;28;20456;-69
2021/06/08 04:08:47;;;;;;;3.13;1.90;;;17.50;98.00;;;;;;5071956;28;20452;-70
2021/06/08 04:11:17;;;;;;;2.70;2.00;;;17.50;98.00;;;;;;5068933;28;20518;-69
2021/06/08 04:13:44;;;;;;;2.30;1.40;;;17.50;98.00;;;;;;5071510;28;20492;-68
2021/06/08 04:16:11;;;;;;;3.60;1.50;;;17.60;98.00;;;;;;5069688;28;20578;-68
2021/06/08 04:18:39;;;;;;;4.20;1.93;;;17.70;98.00;;;;;;5071704;28;20505;-69
2021/06/08 04:21:07;;;;;;;2.90;1.77;;;17.80;98.00;;;;;;5069537;28;20974;-69
2021/06/08 04:23:34;;;;;;;1.73;1.63;;;17.80;98.00;;;;;;5071584;28;20476;-69
2021/06/08 04:26:00;;;;;;;3.37;1.97;;;17.80;98.00;;;;;;5069364;28;20878;-69
2021/06/08 04:28:27;;;;;;;1.60;1.60;;;17.80;98.00;;;;;;5071603;28;20482;-69
2021/06/08 04:30:56;;;;;;;2.33;1.70;;;17.90;98.00;;;;;;5069170;28;21019;-69
2021/06/08 04:33:23;;;;;;;1.67;1.50;;;18.00;98.00;;;;;;5071515;28;20489;-69
2021/06/08 04:35:50;;;;;;;1.90;1.90;;;18.00;98.00;;;;;;5069046;28;20457;-68
2021/06/08 04:38:19;;;;;;;3.40;2.00;;;18.00;98.00;;;;;;5071043;28;20480;-69
2021/06/08 04:40:47;;;;;;;3.73;1.83;;;18.00;98.00;;;;;;5068784;28;20453;-68
2021/06/08 04:43:14;;;;;;;1.90;1.80;;;18.10;98.00;;;;;;5071266;28;20928;-68
2021/06/08 04:45:41;;;;;;;3.47;2.00;;;18.00;98.00;;;;;;5068766;28;20522;-68
2021/06/08 04:48:08;;;;;;;3.20;1.93;;;17.90;98.00;;;;;;5071139;28;20484;-69
2021/06/08 04:50:34;;;;;;;2.53;1.90;;;17.90;98.00;;;;;;5068717;28;20765;-68
2021/06/08 04:53:03;;;;;;;1.77;1.57;;;17.90;98.00;;;;;;5070993;28;20506;-68
2021/06/08 04:55:31;;;;;;;1.90;1.80;;;17.90;98.00;;;;;;5068642;28;20502;-67
2021/06/08 04:57:58;;;;;;;3.80;2.27;;;17.90;98.00;;;;;;5070853;28;20847;-67
2021/06/08 05:00:29;;;;;;;1.67;1.60;;;17.90;98.00;;;;;;5068629;28;20485;-67
2021/06/08 05:02:58;;;;;;;2.33;2.13;;;17.90;98.00;;;;;;5070854;28;21124;-66
2021/06/08 05:05:26;;;;;;;2.57;1.93;;;17.90;98.00;;;;;;5068473;28;20494;-67
2021/06/08 05:07:58;;;;;;;1.40;1.30;;;17.90;98.00;;;;;;5070829;28;20542;-68
2021/06/08 05:10:29;;;;;;;4.10;2.70;;;17.90;98.00;;;;;;5068468;28;20493;-66
2021/06/08 05:12:58;;;;;;;3.37;2.13;;;17.80;98.00;;;;;;5070665;28;20496;-66
2021/06/08 05:15:25;;;;;;;1.80;1.70;;;17.80;98.00;;;;;;5068728;28;20495;-66
2021/06/08 05:17:54;;;;;;;2.20;1.63;;;17.80;98.00;;;;;;5070731;28;20456;-67
2021/06/08 05:20:22;;;;;;;2.53;2.03;;;17.70;98.00;;;;;;5068534;28;20461;-68
2021/06/08 05:22:50;;;;;;;1.30;1.30;;;17.70;98.00;;;;;;5070226;28;20504;-67
2021/06/08 05:25:17;;;;;;;1.83;1.60;;;17.80;98.00;;;;;;5068600;28;20477;-67
2021/06/08 05:27:45;;;;;;;3.53;1.97;;;17.90;98.00;;;;;;5070726;28;20457;-67
2021/06/08 05:30:14;;;;;;;3.83;1.60;;;18.00;98.00;;;;;;5068453;28;20480;-68
2021/06/08 05:32:44;;;;;;;4.33;1.87;;;17.90;98.00;;;;;;5070583;28;20465;-67
2021/06/08 05:35:11;;;;;;;4.17;2.60;;;18.00;98.00;;;;;;5068588;28;20800;-67
2021/06/08 05:37:42;;;;;;;2.30;1.80;;;18.00;98.00;;;;;;5070546;28;20830;-67
2021/06/08 05:40:10;;;;;;;1.40;1.27;;;18.00;98.00;;;;;;5068558;28;20536;-67
2021/06/08 05:42:37;;;;;;;3.30;2.20;;;18.10;98.00;;;;;;5070802;28;20456;-66
2021/06/08 05:45:05;;;;;;;1.90;1.40;;;18.00;98.00;;;;;;5068234;28;20492;-67
2021/06/08 05:47:33;;;;;;;2.50;1.90;;;18.20;98.00;;;;;;5069297;28;20457;-66
2021/06/08 05:50:01;;;;;;;1.60;1.37;;;18.20;98.00;;;;;;5068520;28;20477;-67
2021/06/08 05:52:27;;;;;;;3.10;2.10;;;18.30;98.00;;;;;;5070341;28;20445;-67
2021/06/08 05:54:54;;;;;;;2.27;2.07;;;18.30;98.00;;;;;;5068000;28;20530;-67
2021/06/08 05:57:21;;;;;;;2.70;2.00;;;18.40;98.00;;;;;;5070454;28;20774;-67
2021/06/08 05:59:49;;;;;;;3.50;2.10;;;18.50;98.00;;;;;;5068103;28;20489;-67
2021/06/08 06:02:16;;;;;;;1.53;1.50;;;18.50;98.00;;;;;;5070247;28;20954;-66
2021/06/08 06:04:45;;;;;;;1.73;1.30;;;18.40;98.00;;;;;;5067765;28;20457;-67
2021/06/08 06:07:11;;;;;;;1.80;1.73;;;18.40;98.00;;;;;;5070304;28;20468;-66
2021/06/08 06:09:38;;;;;;;2.63;1.60;;;18.30;98.00;;;;;;5068027;28;20811;-70
2021/06/08 06:12:07;;;;;;;3.00;2.17;;;18.30;98.00;;;;;;5070304;28;20994;-69
2021/06/08 06:14:36;;;;;;;2.07;1.93;;;18.30;98.00;;;;;;5067798;28;20456;-70
2021/06/08 06:17:03;;;;;;;1.50;1.33;;;18.30;98.00;;;;;;5070251;28;20963;-70
2021/06/08 06:19:30;;;;;;;2.23;2.00;;;18.30;98.00;;;;;;5067630;28;20481;-70
2021/06/08 06:21:59;;;;;;;3.77;2.20;;;18.30;98.00;;;;;;5069880;28;20526;-70
2021/06/08 06:24:27;;;;;;;2.33;1.90;;;18.40;98.00;;;;;;5067799;28;20461;-69
2021/06/08 06:26:55;;;;;;;5.33;2.90;;;18.40;98.00;;;;;;5070010;28;20552;-70
2021/06/08 06:29:22;;;;;;;3.10;1.60;;;18.40;98.00;;;;;;5067456;28;20449;-70
2021/06/08 06:31:49;;;;;;;2.23;2.07;;;18.40;98.00;;;;;;5068961;28;20559;-70
2021/06/08 06:34:18;;;;;;;6.03;2.60;;;18.40;98.00;;;;;;5070050;28;20526;-70
2021/06/08 06:36:47;;;;;;;1.63;1.63;;;18.40;98.00;;;;;;5072353;28;20457;-70
2021/06/08 06:39:20;;;;;;;3.23;1.80;;;18.40;98.00;;;;;;5073616;28;20939;-70
2021/06/08 06:41:49;;;;;;;2.00;1.47;;;18.40;98.00;;;;;;5073685;28;20487;-69
2021/06/08 06:44:19;;;;;;;3.83;2.07;;;18.50;98.00;;;;;;5073580;28;20484;-69
2021/06/08 06:46:46;;;;;;;1.97;1.80;;;18.50;98.00;;;;;;5072234;28;20531;-69
2021/06/08 06:49:13;;;;;;;4.40;2.53;;;18.60;98.00;;;;;;5073483;28;20966;-70
2021/06/08 06:51:41;;;;;;;2.97;2.47;;;18.50;98.00;;;;;;5070996;28;20456;-69
2021/06/08 06:54:09;;;;;;;2.43;1.47;;;18.50;98.00;;;;;;5073418;28;20875;-69
2021/06/08 06:56:38;;;;;;;2.17;1.77;;;18.40;98.00;;;;;;5070753;28;20532;-70
2021/06/08 06:59:05;;;;;;;1.90;1.87;;;18.30;98.00;;;;;;5073127;28;20827;-68
2021/06/08 07:01:32;;;;;;;2.87;2.27;;;18.40;98.00;;;;;;5070879;28;20464;-69
2021/06/08 07:04:01;;;;;;;1.60;1.53;;;18.40;98.00;;;;;;5073239;28;20537;-70
2021/06/08 07:06:30;;;;;;;2.17;2.00;;;18.30;98.00;;;;;;5070714;28;20511;-69
2021/06/08 07:08:58;;;;;;;2.07;1.77;;;18.30;98.00;;;;;;5073247;28;20457;-70
2021/06/08 07:11:29;;;;;;;3.70;2.00;;;18.30;98.00;;;;;;5070795;28;20638;-69
2021/06/08 07:13:59;;;;;;;1.90;1.40;;;18.30;98.00;;;;;;5071779;28;20539;-69
2021/06/08 07:16:27;;;;;;;1.60;1.60;;;18.30;98.00;;;;;;5070471;28;20488;-69
2021/06/08 07:18:54;;;;;;;1.83;1.73;;;18.20;98.00;;;;;;5072816;28;20481;-70
2021/06/08 07:21:23;;;;;;;3.70;2.00;;;18.20;98.00;;;;;;5070285;28;20445;-70
2021/06/08 07:23:53;;;;;;;1.47;1.47;;;18.30;98.00;;;;;;5072690;28;20461;-70
2021/06/08 07:26:29;;;;;;;1.90;1.60;;;18.30;98.00;;;;;;5070407;28;20461;-69
2021/06/08 07:28:57;;;;;;;2.83;2.40;;;18.20;98.00;;;;;;5072654;28;21183;-70
2021/06/08 07:31:33;;;;;;;3.10;2.27;;;18.30;98.00;;;;;;5068718;28;20955;-69
2021/06/08 07:34:03;;;;;;;4.20;2.53;;;18.30;98.00;;;;;;5072118;28;20994;-68
2021/06/08 07:36:39;;;;;;;2.87;1.90;;;18.30;98.00;;;;;;5069993;28;20978;-69
2021/06/08 07:39:11;;;;;;;2.27;2.07;;;18.20;98.00;;;;;;5071949;28;20515;-69
2021/06/08 07:41:43;;;;;;;2.53;1.50;;;18.30;98.00;;;;;;5069571;28;20857;-71
2021/06/08 07:44:16;;;;;;;3.33;2.30;;;18.40;98.00;;;;;;5071993;28;20886;-69
2021/06/08 07:46:44;;;;;;;1.83;1.73;;;18.40;98.00;;;;;;5069507;28;20448;-69
2021/06/08 07:49:12;;;;;;;2.37;2.10;;;18.40;98.00;;;;;;5071096;28;20469;-71
2021/06/08 07:51:41;;;;;;;3.00;1.53;;;18.50;98.00;;;;;;5069174;28;20452;-71
2021/06/08 07:54:08;;;;;;;2.17;1.90;;;18.60;98.00;;;;;;5071673;28;20496;-70
2021/06/08 07:56:37;;;;;;;3.67;2.30;;;18.60;98.00;;;;;;5069066;28;20484;-71
2021/06/08 07:59:05;;;;;;;3.80;2.10;;;18.70;98.00;;;;;;5071538;28;20489;-70
2021/06/08 08:01:33;;;;;;;2.47;2.27;;;18.90;98.00;;;;;;5067856;28;20483;-70
2021/06/08 08:04:07;;;;;;;2.07;1.90;;;18.90;98.00;;;;;;5071600;28;20456;-71
2021/06/08 08:06:34;;;;;;;2.63;1.93;;;19.00;98.00;;;;;;5067697;28;20467;-71
2021/06/08 08:09:03;;;;;;;3.27;2.30;;;19.10;98.00;;;;;;5071243;28;20468;-71
2021/06/08 08:11:31;;;;;;;3.87;2.03;;;19.10;98.00;;;;;;5068991;28;20465;-68
2021/06/08 08:13:58;;;;;;;2.27;2.07;;;19.10;98.00;;;;;;5071393;28;20449;-71
2021/06/08 08:16:26;;;;;;;2.23;2.03;;;19.20;98.00;;;;;;5068821;28;20949;-70
2021/06/08 08:18:54;;;;;;;2.33;2.13;;;19.20;98.00;;;;;;5071124;28;20562;-70
2021/06/08 08:21:21;;;;;;;2.80;2.33;;;19.40;98.00;;;;;;5068102;28;20489;-70
2021/06/08 08:23:48;;;;;;;2.90;2.60;;;19.60;98.00;;;;;;5071305;28;20469;-72
2021/06/08 08:26:15;;;;;;;1.93;1.60;;;19.60;98.00;;;;;;5068167;28;20836;-71
2021/06/08 08:28:43;;;;;;;2.43;1.73;;;19.70;98.00;;;;;;5070539;28;20449;-72
2021/06/08 08:31:12;;;;;;;3.37;1.80;;;19.70;98.00;;;;;;5068573;28;20457;-68
2021/06/08 08:33:39;;;;;;;2.17;1.80;;;19.80;98.00;;;;;;5070688;28;20940;-70
2021/06/08 08:36:10;;;;;;;3.60;2.93;;;19.80;98.00;;;;;;5068381;28;20496;-71
2021/06/08 08:38:36;;;;;;;2.97;2.40;;;19.90;98.00;;;;;;5070559;28;20476;-71
2021/06/08 08:41:04;;;;;;;2.50;2.00;;;19.80;98.00;;;;;;5068635;28;20456;-69
2021/06/08 08:43:31;;;;;;;3.93;2.37;;;19.80;98.00;;;;;;5070792;28;20451;-71
2021/06/08 08:45:58;;;;;;;3.33;2.57;;;19.90;98.00;;;;;;5068129;28;20460;-70
2021/06/08 08:48:24;;;;;;;3.43;3.20;;;19.90;98.00;;;;;;5070244;28;20817;-70
2021/06/08 08:50:51;;;;;;;2.40;1.80;;;20.00;98.00;;;;;;5066727;28;20487;-70
2021/06/08 08:53:20;;;;;;;2.63;2.00;;;20.00;98.00;;;;;;5070598;28;20556;-70
2021/06/08 08:55:47;;;;;;;3.60;2.90;;;20.10;98.00;;;;;;5067877;28;20485;-68
2021/06/08 08:58:15;;;;;;;7.10;2.60;;;20.10;98.00;;;;;;5069836;28;20488;-70
2021/06/08 09:00:43;;;;;;;3.87;1.83;;;20.20;98.00;;;;;;5067248;28;20819;-70
2021/06/08 09:03:13;;;;;;;4.73;2.47;;;20.20;98.00;;;;;;5069944;28;20460;-70
2021/06/08 09:05:40;;;;;;;5.03;2.83;;;20.40;98.00;;;;;;5067168;28;20857;-70
2021/06/08 09:08:08;;;;;;;3.33;2.43;;;20.40;98.00;;;;;;5071008;28;20460;-70
2021/06/08 09:10:38;;;;;;;3.27;2.10;;;20.40;98.00;;;;;;5068757;28;20540;-71
2021/06/08 09:13:05;;;;;;;4.37;2.57;;;20.40;98.00;;;;;;5071265;28;20510;-70
2021/06/08 09:15:34;;;;;;;3.60;2.90;;;20.50;98.00;;;;;;5068307;28;20449;-70
2021/06/08 09:18:14;;;;;;;4.53;2.50;;;20.50;98.00;;;;;;5070740;28;20460;-70
2021/06/08 09:20:41;;;;;;;4.40;2.57;;;20.50;98.00;;;;;;5068579;28;20560;-71
2021/06/08 09:23:08;;;;;;;2.80;2.30;;;20.50;98.00;;;;;;5071214;28;20813;-71
2021/06/08 09:25:45;;;;;;;4.10;2.00;;;20.40;98.00;;;;;;5068158;28;20525;-71
2021/06/08 09:28:24;;;;;;;3.73;2.47;;;20.50;98.00;;;;;;5070824;28;20458;-70
2021/06/08 09:30:56;;;;;;;2.53;2.17;;;20.40;98.00;;;;;;5067961;28;20547;-71
2021/06/08 09:33:24;;;;;;;2.47;2.10;;;20.50;98.00;;;;;;5070908;28;20470;-70
2021/06/08 09:35:56;;;;;;;2.90;2.47;;;20.50;98.00;;;;;;5067822;28;20485;-71
2021/06/08 09:38:33;;;;;;;2.20;2.00;;;20.50;98.00;;;;;;5070368;28;20456;-70
2021/06/08 09:41:17;;;;;;;2.17;2.00;;;20.50;98.00;;;;;;5067074;28;20464;-71
2021/06/08 09:44:00;;;;;;;3.50;2.77;;;20.60;98.00;;;;;;5069596;28;20497;-71
2021/06/08 09:46:29;;;;;;;2.57;2.37;;;20.70;98.00;;;;;;5067626;28;20456;-70
2021/06/08 09:48:57;;;;;;;2.73;2.07;;;20.80;98.00;;;;;;5070509;28;21233;-70
2021/06/08 09:51:24;;;;;;;4.97;2.60;;;20.90;98.00;;;;;;5067756;28;20464;-71
2021/06/08 09:53:51;;;;;;;3.33;2.40;;;21.10;98.00;;;;;;5070688;28;20517;-70
2021/06/08 09:56:21;;;;;;;4.20;2.47;;;21.10;98.00;;;;;;5067785;28;20456;-71
2021/06/08 09:58:51;;;;;;;2.80;2.60;;;21.20;98.00;;;;;;5070208;28;20491;-70
2021/06/08 10:01:21;;;;;;;4.20;2.27;;;21.30;98.00;;;;;;5068127;28;20456;-71
2021/06/08 10:03:50;;;;;;;3.33;2.50;;;21.20;98.00;;;;;;5070329;28;20467;-70
2021/06/08 10:06:20;;;;;;;4.23;3.00;;;21.20;98.00;;;;;;5068183;28;20466;-70
2021/06/08 10:08:55;;;;;;;2.40;2.20;;;21.30;98.00;;;;;;5070431;28;20459;-71
2021/06/08 10:11:26;;;;;;;3.83;2.90;;;21.40;98.00;;;;;;5071081;28;20456;-70
2021/06/08 10:13:59;;;;;;;3.37;2.93;;;21.50;98.00;;;;;;5074479;28;20449;-70
2021/06/08 10:16:29;;;;;;;4.47;2.43;;;21.80;98.00;;;;;;5071806;28;20459;-70
2021/06/08 10:18:57;;;;;;;3.37;2.60;;;22.00;98.00;;;;;;5074097;28;20558;-71
2021/06/08 10:21:36;;;;;;;4.23;2.67;;;22.20;98.00;;;;;;5071730;28;20452;-70
2021/06/08 10:24:04;;;;;;;2.17;2.07;;;22.50;98.00;;;;;;5074224;28;20465;-71
2021/06/08 10:26:35;;;;;;;3.13;2.97;;;22.70;98.00;;;;;;5071477;28;20452;-70
2021/06/08 10:29:04;;;;;;;4.60;2.73;;;22.70;98.00;;;;;;5072668;28;20460;-71
2021/06/08 10:31:32;;;;;;;5.10;3.93;;;22.70;98.00;;;;;;5071202;28;20468;-71
2021/06/08 10:33:58;;;;;;;5.10;3.20;;;22.60;98.00;;;;;;5073941;28;20460;-71
2021/06/08 10:36:26;;;;;;;4.17;2.77;;;22.70;98.00;;;;;;5071045;28;20464;-71
2021/06/08 10:38:52;;;;;;;4.13;2.57;;;22.60;98.00;;;;;;5073569;28;20487;-71
2021/06/08 10:41:20;;;;;;;4.33;3.47;;;22.50;98.00;;;;;;5070705;28;20445;-71
2021/06/08 10:43:48;;;;;;;3.00;2.60;;;22.40;98.00;;;;;;5073829;28;20460;-71
2021/06/08 10:46:24;;;;;;;4.73;3.40;;;22.40;98.00;;;;;;5071189;28;20962;-71
2021/06/08 10:48:52;;;;;;;5.20;3.80;;;22.50;98.00;;;;;;5074256;28;20965;-69
2021/06/08 10:51:21;;;;;;;5.33;3.10;;;22.40;98.00;;;;;;5072238;28;20480;-70
2021/06/08 10:53:49;;;;;;;3.90;2.87;;;22.30;98.00;;;;;;5074752;28;20468;-70
2021/06/08 10:56:22;;;;;;;5.60;3.30;;;22.10;98.00;;;;;;5072361;28;20514;-70
2021/06/08 10:58:53;;;;;;;4.90;3.53;;;22.30;98.00;;;;;;5074597;28;20538;-70
2021/06/08 11:01:49;;;;;;;3.63;2.70;;;22.30;98.00;;;;;;5071444;28;20990;-70
2021/06/08 11:04:23;;;;;;;4.00;3.20;;;22.50;98.00;;;;;;5073815;28;20453;-71
2021/06/08 11:06:56;;;;;;;3.37;2.33;;;22.70;98.00;;;;;;5071094;28;20453;-69
2021/06/08 11:09:36;;;;;;;3.93;2.70;;;22.70;98.00;;;;;;5073103;28;20546;-70
2021/06/08 11:12:24;;;;;;;3.90;2.97;;;22.80;98.00;;;;;;5070431;28;20456;-70
2021/06/08 11:14:59;;;;;;;3.17;2.73;;;22.80;98.00;;;;;;5070844;28;20555;-70
2021/06/08 11:17:32;;;;;;;6.47;3.07;;;22.80;98.00;;;;;;5073281;28;20818;-70
2021/06/08 11:20:00;;;;;;;2.80;2.30;;;23.00;98.00;;;;;;5070386;28;20484;-70
2021/06/08 11:23:05;;;;;;;4.63;3.27;;;22.90;98.00;;;;;;5072387;28;20457;-70
2021/06/08 11:25:54;;;;;;;5.00;2.43;;;22.80;98.00;;;;;;4988691;28;20468;-70
2021/06/08 11:28:21;;;;;;;8.07;3.93;;;22.80;98.00;;;;;;4990040;28;20531;-70
2021/06/08 11:31:00;;;;;;;4.83;3.20;;;22.70;98.00;;;;;;5040105;28;20453;-70
2021/06/08 11:33:29;;;;;;;4.70;2.93;;;22.70;98.00;;;;;;5072767;28;20475;-71
2021/06/08 11:35:56;;;;;;;3.83;3.07;;;22.80;98.00;;;;;;5070091;28;20978;-70
2021/06/08 11:38:33;;;;;;;3.73;2.67;;;22.90;98.00;;;;;;5072532;28;20480;-70
2021/06/08 11:41:05;;;;;;;2.77;2.43;;;23.00;98.00;;;;;;5069753;28;20532;-70
2021/06/08 11:43:55;;;;;;;4.17;3.00;;;23.10;98.00;;;;;;5072492;28;20876;-70
2021/06/08 11:46:29;;;;;;;5.63;3.33;;;23.20;98.00;;;;;;5070023;28;20500;-70
2021/06/08 11:49:13;;;;;;;3.40;3.17;;;23.40;98.00;;;;;;5071198;28;20497;-71
2021/06/08 11:51:45;;;;;;;3.80;3.03;;;23.60;98.00;;;;;;5069318;28;20942;-70
2021/06/08 11:54:14;;;;;;;5.80;3.50;;;23.80;98.00;;;;;;5072810;28;20931;-70
2021/06/08 11:56:46;;;;;;;4.33;2.70;;;24.00;98.00;;;;;;5068745;28;20453;-72
2021/06/08 11:59:17;;;;;;;3.37;2.90;;;23.80;98.00;;;;;;5072111;28;20914;-71
2021/06/08 12:01:48;;;;;;;3.20;2.50;;;23.90;98.00;;;;;;5070195;28;20465;-71
2021/06/08 12:04:15;;;;;;;3.63;3.03;;;23.80;98.00;;;;;;5072401;28;20457;-70
2021/06/08 12:07:06;;;;;;;4.83;2.27;;;23.80;98.00;;;;;;5069900;28;20448;-72
2021/06/08 12:09:35;;;;;;;4.83;3.20;;;24.20;98.00;;;;;;5067655;28;20531;-70
2021/06/08 12:12:09;;;;;;;3.30;2.90;;;24.10;98.00;;;;;;5069607;28;20464;-71
2021/06/08 12:14:36;;;;;;;5.70;3.23;;;24.00;98.00;;;;;;5072250;28;20483;-71
2021/06/08 12:17:04;;;;;;;4.13;3.07;;;24.00;98.00;;;;;;5069539;28;21132;-71
2021/06/08 12:19:33;;;;;;;3.40;2.50;;;24.20;98.00;;;;;;5071715;28;20569;-70
2021/06/08 12:22:01;;;;;;;3.30;2.80;;;24.30;98.00;;;;;;5069477;28;21087;-70
2021/06/08 12:24:28;;;;;;;3.60;2.77;;;24.80;98.00;;;;;;5071510;28;20974;-69
2021/06/08 12:26:58;;;;;;;3.93;2.50;;;24.80;98.00;;;;;;5067950;28;20461;-67
2021/06/08 12:29:25;;;;;;;3.13;2.33;;;24.80;98.00;;;;;;5072065;28;20448;-71
2021/06/08 12:31:57;;;;;;;4.93;3.33;;;24.70;98.00;;;;;;5068842;28;20449;-71
2021/06/08 12:34:28;;;;;;;4.90;3.17;;;24.80;98.00;;;;;;5071046;28;20508;-71
2021/06/08 12:36:57;;;;;;;3.60;2.90;;;25.20;98.00;;;;;;5068898;28;20547;-73
2021/06/08 12:39:28;;;;;;;5.03;3.23;;;25.50;98.00;;;;;;5071204;28;20588;-71
2021/06/08 12:42:09;;;;;;;4.53;3.37;;;25.90;97.50;;;;;;5068734;28;20461;-71
2021/06/08 12:44:35;;;;;;;2.50;1.90;;;25.70;96.30;;;;;;5071651;28;20539;-72
2021/06/08 12:47:04;;;;;;;5.53;2.90;;;26.00;98.00;;;;;;5069215;28;20461;-71
2021/06/08 12:49:39;;;;;;;3.53;2.43;;;26.40;96.50;;;;;;5071806;28;20456;-71
2021/06/08 12:52:07;;;;;;;3.93;2.70;;;26.90;95.70;;;;;;5069157;28;21004;-72
2021/06/08 12:54:38;;;;;;;4.43;3.20;;;27.00;97.50;;;;;;5071972;28;20600;-74
2021/06/08 12:57:07;;;;;;;4.00;2.40;;;27.00;94.70;;;;;;5069165;28;20463;-71
2021/06/08 12:59:37;;;;;;;5.33;2.90;;;26.90;96.00;;;;;;5071753;28;20484;-71
2021/06/08 13:02:10;;;;;;;4.10;2.27;;;27.10;95.20;;;;;;5067274;28;20798;-72